createdAt,value
2019-01-30T00:01:10.704Z,98.50
2019-01-30T00:05:34.396Z,98.50
2019-01-30T00:09:58.164Z,98.70
2019-01-30T00:14:21.763Z,98.80
2019-01-30T00:18:46.690Z,98.90
2019-01-30T00:23:10.467Z,98.90
2019-01-30T00:27:34.110Z,98.90
2019-01-30T00:31:57.801Z,98.80
2019-01-30T00:36:21.589Z,98.90
2019-01-30T00:40:45.348Z,98.90
2019-01-30T00:45:16.696Z,98.60
2019-01-30T00:49:40.848Z,98.90
2019-01-30T00:54:04.774Z,99.10
2019-01-30T00:58:28.859Z,99.10
2019-01-30T01:02:52.372Z,99.00
2019-01-30T01:07:15.943Z,99.10
2019-01-30T01:11:39.570Z,99.50
2019-01-30T01:16:03.440Z,99.20
2019-01-30T01:20:27.634Z,99.30
2019-01-30T01:24:51.141Z,99.30
2019-01-30T01:29:14.908Z,99.40
2019-01-30T01:33:38.771Z,99.50
2019-01-30T01:38:02.195Z,99.70
2019-01-30T01:42:25.929Z,99.70
2019-01-30T01:46:49.716Z,99.80
2019-01-30T01:51:13.810Z,99.80
2019-01-30T01:55:37.752Z,99.90
2019-01-30T02:00:01.590Z,99.90
2019-01-30T02:04:25.303Z,99.80
2019-01-30T02:08:49.440Z,99.90
2019-01-30T02:13:13.224Z,99.80
2019-01-30T02:17:36.809Z,99.90
2019-01-30T02:22:00.551Z,99.90
2019-01-30T02:26:24.340Z,99.90
2019-01-30T02:30:48.204Z,99.90
2019-01-30T02:35:12.186Z,99.90
2019-01-30T02:39:35.829Z,99.90
2019-01-30T02:43:59.673Z,99.90
2019-01-30T02:48:23.739Z,99.90
2019-01-30T02:52:47.510Z,99.90
2019-01-30T02:57:11.557Z,99.90
2019-01-30T03:01:37.037Z,99.90
2019-01-30T03:06:00.750Z,99.90
2019-01-30T03:10:24.587Z,99.90
2019-01-30T03:14:48.496Z,99.90
2019-01-30T03:19:12.439Z,99.90
2019-01-30T03:23:36.082Z,99.90
2019-01-30T03:27:59.842Z,99.90
2019-01-30T03:32:23.961Z,99.90
2019-01-30T03:36:47.808Z,99.90
2019-01-30T03:41:11.323Z,99.90
2019-01-30T03:45:35.243Z,99.90
2019-01-30T03:49:59.117Z,99.90
2019-01-30T03:54:22.846Z,99.90
2019-01-30T03:58:46.845Z,99.90
2019-01-30T04:03:10.779Z,99.90
2019-01-30T04:07:34.753Z,99.90
2019-01-30T04:11:58.556Z,99.90
2019-01-30T04:16:22.317Z,99.90
2019-01-30T04:20:46.222Z,99.90
2019-01-30T04:25:09.934Z,99.90
2019-01-30T04:29:33.703Z,99.90
2019-01-30T04:33:57.236Z,99.90
2019-01-30T04:38:21.133Z,99.90
2019-01-30T04:42:45.349Z,99.90
2019-01-30T04:47:09.283Z,99.90
2019-01-30T04:51:32.938Z,99.90
2019-01-30T04:55:56.703Z,99.90
2019-01-30T05:00:22.753Z,99.90
2019-01-30T05:04:46.395Z,99.90
2019-01-30T05:09:10.219Z,99.90
2019-01-30T05:13:33.926Z,99.90
2019-01-30T05:17:57.594Z,99.90
2019-01-30T05:22:21.605Z,99.90
2019-01-30T05:26:45.513Z,99.90
2019-01-30T05:31:09.720Z,99.90
2019-01-30T05:35:33.938Z,99.90
2019-01-30T05:39:57.458Z,99.90
2019-01-30T05:44:21.046Z,99.90
2019-01-30T05:48:44.920Z,99.90
2019-01-30T05:53:08.879Z,99.90
2019-01-30T05:57:32.852Z,99.90
2019-01-30T06:01:56.710Z,99.90
2019-01-30T06:06:20.456Z,99.90
2019-01-30T06:10:44.426Z,99.90
2019-01-30T06:15:11.340Z,99.90
2019-01-30T06:19:35.144Z,99.90
2019-01-30T06:23:58.943Z,99.90
2019-01-30T06:28:26.132Z,99.90
2019-01-30T06:32:48.837Z,99.90
2019-01-30T06:37:12.591Z,99.90
2019-01-30T06:41:36.322Z,99.90
2019-01-30T06:45:59.996Z,99.90
2019-01-30T06:50:23.767Z,99.90
2019-01-30T06:54:47.863Z,99.90
2019-01-30T06:59:11.649Z,99.90
2019-01-30T07:03:35.437Z,99.40
2019-01-30T07:07:59.347Z,99.30
2019-01-30T07:12:23.097Z,98.80
2019-01-30T07:16:47.068Z,98.70
2019-01-30T07:21:10.930Z,98.40
2019-01-30T07:25:36.779Z,98.60
2019-01-30T07:30:00.447Z,98.60
2019-01-30T07:34:24.467Z,98.70
2019-01-30T07:38:48.380Z,98.60
2019-01-30T07:43:12.167Z,98.50
2019-01-30T07:47:37.035Z,98.10
2019-01-30T07:52:00.815Z,97.70
2019-01-30T07:56:24.685Z,97.50
2019-01-30T08:00:48.852Z,97.30
2019-01-30T08:05:12.368Z,97.10
2019-01-30T08:09:36.479Z,97.20
2019-01-30T08:14:01.950Z,97.00
2019-01-30T08:18:08.008Z,96.50
2019-01-30T08:22:14.241Z,96.20
2019-01-30T08:26:19.919Z,96.00
2019-01-30T08:30:26.861Z,95.10
2019-01-30T08:34:32.059Z,94.90
2019-01-30T08:38:37.272Z,93.80
2019-01-30T08:42:42.476Z,93.40
2019-01-30T08:47:06.067Z,92.70
2019-01-30T08:51:29.644Z,91.80
2019-01-30T08:55:42.590Z,90.50
2019-01-30T08:59:47.778Z,89.00
2019-01-30T09:03:53.095Z,87.50
2019-01-30T09:07:58.402Z,86.10
2019-01-30T09:12:03.616Z,85.70
2019-01-30T09:16:08.896Z,85.70
2019-01-30T09:20:20.138Z,85.10
2019-01-30T09:24:25.358Z,85.20
2019-01-30T09:28:30.555Z,84.00
2019-01-30T09:32:35.840Z,83.30
2019-01-30T09:36:41.071Z,83.20
2019-01-30T09:40:46.322Z,81.90
2019-01-30T09:44:51.656Z,81.20
2019-01-30T09:48:56.847Z,79.80
2019-01-30T09:53:02.064Z,78.20
2019-01-30T09:57:07.309Z,78.50
2019-01-30T10:01:12.494Z,76.60
2019-01-30T10:05:17.857Z,76.00
2019-01-30T10:09:23.178Z,73.80
2019-01-30T10:13:28.416Z,71.70
2019-01-30T10:17:35.170Z,70.70
2019-01-30T10:21:40.463Z,69.90
2019-01-30T10:25:45.660Z,70.40
2019-01-30T10:29:50.963Z,70.50
2019-01-30T10:33:56.207Z,69.80
2019-01-30T10:38:01.389Z,67.50
2019-01-30T10:42:06.617Z,67.40
2019-01-30T10:46:11.855Z,65.70
2019-01-30T10:50:25.747Z,65.40
2019-01-30T10:54:30.985Z,64.20
2019-01-30T10:58:54.545Z,64.30
2019-01-30T11:03:17.967Z,64.30
2019-01-30T11:07:41.840Z,64.80
2019-01-30T11:12:05.392Z,63.70
2019-01-30T11:16:28.983Z,65.20
2019-01-30T11:20:53.035Z,64.20
2019-01-30T11:25:25.728Z,63.20
2019-01-30T11:29:49.592Z,62.30
2019-01-30T11:34:13.797Z,62.10
2019-01-30T11:38:37.435Z,61.90
2019-01-30T11:43:01.431Z,62.00
2019-01-30T11:47:25.233Z,63.50
2019-01-30T11:51:49.072Z,61.20
2019-01-30T11:56:13.168Z,62.00
2019-01-30T12:00:41.025Z,60.90
2019-01-30T12:05:06.785Z,62.90
2019-01-30T12:09:30.480Z,64.10
2019-01-30T12:13:54.129Z,64.30
2019-01-30T12:18:17.856Z,63.80
2019-01-30T12:22:41.656Z,62.50
2019-01-30T12:27:05.467Z,62.00
2019-01-30T12:31:29.374Z,62.10
2019-01-30T12:35:53.309Z,59.80
2019-01-30T12:40:19.517Z,59.00
2019-01-30T12:44:43.264Z,59.20
2019-01-30T12:49:07.104Z,60.60
2019-01-30T12:53:30.687Z,60.60
2019-01-30T12:57:35.944Z,61.60
2019-01-30T13:01:59.308Z,63.10
2019-01-30T13:06:22.993Z,61.90
2019-01-30T13:10:47.128Z,61.90
2019-01-30T13:15:13.863Z,60.60
2019-01-30T13:19:37.707Z,60.30
2019-01-30T13:24:01.720Z,61.70
2019-01-30T13:28:25.308Z,63.60
2019-01-30T13:32:48.945Z,63.30
2019-01-30T13:37:12.515Z,62.80
2019-01-30T13:41:36.296Z,65.30
2019-01-30T13:46:05.543Z,65.40
2019-01-30T13:50:27.633Z,66.60
2019-01-30T13:54:52.241Z,67.20
2019-01-30T13:59:15.964Z,66.50
2019-01-30T14:03:39.575Z,67.80
2019-01-30T14:08:03.611Z,68.40
2019-01-30T14:12:27.209Z,68.90
2019-01-30T14:16:51.124Z,69.00
2019-01-30T14:21:14.795Z,69.50
2019-01-30T14:25:38.898Z,70.30
2019-01-30T14:30:03.065Z,70.10
2019-01-30T14:34:26.971Z,70.60
2019-01-30T14:38:51.065Z,71.80
2019-01-30T14:43:15.161Z,71.90
2019-01-30T14:47:39.473Z,72.60
2019-01-30T14:52:04.272Z,72.80
2019-01-30T14:56:28.220Z,73.40
2019-01-30T15:00:52.252Z,73.60
2019-01-30T15:05:22.513Z,74.30
2019-01-30T15:09:42.247Z,74.40
2019-01-30T15:14:06.241Z,75.10
2019-01-30T15:18:30.127Z,76.20
2019-01-30T15:22:54.115Z,76.60
2019-01-30T15:27:18.304Z,77.00
2019-01-30T15:31:42.398Z,77.40
2019-01-30T15:36:06.619Z,77.70
2019-01-30T15:40:31.304Z,78.00
2019-01-30T15:44:55.381Z,78.40
2019-01-30T15:49:19.266Z,78.50
2019-01-30T15:53:43.255Z,78.90
2019-01-30T15:58:09.222Z,79.50
2019-01-30T16:02:33.456Z,80.40
2019-01-30T16:06:57.570Z,80.00
2019-01-30T16:11:21.967Z,80.90
2019-01-30T16:15:50.256Z,81.00
2019-01-30T16:20:15.059Z,81.00
2019-01-30T16:24:39.049Z,81.50
2019-01-30T16:29:03.039Z,81.90
2019-01-30T16:33:27.227Z,82.00
2019-01-30T16:37:51.435Z,82.30
2019-01-30T16:42:17.148Z,82.50
2019-01-30T16:46:41.039Z,82.70
2019-01-30T16:51:05.123Z,82.90
2019-01-30T16:55:31.055Z,82.80
2019-01-30T16:59:55.553Z,83.00
2019-01-30T17:04:19.773Z,88.50
2019-01-30T17:08:43.425Z,86.40
2019-01-30T17:13:08.746Z,82.30
2019-01-30T17:17:32.527Z,81.70
2019-01-30T17:21:56.606Z,83.00
2019-01-30T17:26:20.708Z,84.10
2019-01-30T17:30:51.020Z,84.80
2019-01-30T17:35:14.138Z,84.80
2019-01-30T17:39:38.302Z,84.90
2019-01-30T17:44:02.185Z,85.10
2019-01-30T17:48:26.375Z,85.20
2019-01-30T17:52:52.411Z,85.10
2019-01-30T17:57:16.609Z,84.70
2019-01-30T18:01:40.694Z,85.10
2019-01-30T18:06:04.797Z,84.80
2019-01-30T18:10:30.276Z,84.90
2019-01-30T18:14:54.396Z,87.00
2019-01-30T18:19:18.505Z,84.70
2019-01-30T18:23:43.187Z,84.70
2019-01-30T18:28:07.177Z,85.20
2019-01-30T18:32:34.235Z,86.30
2019-01-30T18:36:58.631Z,85.60
2019-01-30T18:41:22.927Z,85.60
2019-01-30T18:45:46.914Z,87.10
2019-01-30T18:50:19.912Z,85.50
2019-01-30T18:54:44.000Z,86.10
2019-01-30T18:59:09.012Z,86.60
2019-01-30T19:03:34.845Z,86.80
2019-01-30T19:07:59.033Z,87.40
2019-01-30T19:12:23.022Z,86.70
2019-01-30T19:16:47.215Z,87.20
2019-01-30T19:21:11.440Z,87.90
2019-01-30T19:25:35.702Z,88.10
2019-01-30T19:30:00.099Z,88.50
2019-01-30T19:34:25.824Z,88.80
2019-01-30T19:38:52.065Z,89.40
2019-01-30T19:43:17.076Z,89.90
2019-01-30T19:47:41.085Z,89.90
2019-01-30T19:52:07.810Z,90.00
2019-01-30T19:56:32.211Z,90.20
2019-01-30T20:00:56.716Z,90.40
2019-01-30T20:05:20.904Z,90.40
2019-01-30T20:09:45.812Z,90.60
2019-01-30T20:14:10.350Z,90.70
2019-01-30T20:18:35.736Z,90.90
2019-01-30T20:23:02.616Z,90.90
2019-01-30T20:27:27.443Z,91.10
2019-01-30T20:31:51.790Z,91.20
2019-01-30T20:36:16.288Z,91.30
2019-01-30T20:40:40.787Z,91.40
2019-01-30T20:45:07.641Z,91.60
2019-01-30T20:49:32.245Z,91.70
2019-01-30T20:53:57.004Z,92.10
2019-01-30T20:58:21.602Z,92.10
2019-01-30T21:02:45.439Z,92.20
2019-01-30T21:07:09.941Z,92.30
2019-01-30T21:11:34.271Z,92.50
2019-01-30T21:15:58.114Z,92.60
2019-01-30T21:20:22.206Z,93.00
2019-01-30T21:24:49.104Z,93.00
2019-01-30T21:29:13.780Z,93.00
2019-01-30T21:33:38.266Z,93.10
2019-01-30T21:38:02.457Z,93.30
2019-01-30T21:42:27.054Z,93.20
2019-01-30T21:46:51.981Z,93.30
2019-01-30T21:51:16.977Z,93.40
2019-01-30T21:55:41.473Z,93.40
2019-01-30T22:00:08.352Z,93.50
2019-01-30T22:04:33.663Z,93.60
2019-01-30T22:08:57.853Z,93.70
2019-01-30T22:13:22.335Z,93.90
2019-01-30T22:17:46.426Z,94.20
2019-01-30T22:22:10.845Z,94.10
2019-01-30T22:26:35.024Z,94.20
2019-01-30T22:30:59.003Z,94.20
2019-01-30T22:35:24.343Z,94.20
2019-01-30T22:39:49.748Z,94.20
2019-01-30T22:44:13.729Z,94.30
2019-01-30T22:48:37.921Z,94.40
2019-01-30T22:53:02.219Z,94.50
2019-01-30T22:57:26.407Z,94.60
2019-01-30T23:01:38.106Z,94.50
2019-01-30T23:06:25.031Z,94.60
2019-01-30T23:11:09.192Z,94.60
2019-01-30T23:15:56.182Z,94.60
2019-01-30T23:20:22.652Z,94.70
2019-01-30T23:25:11.840Z,94.70
2019-01-30T23:30:01.941Z,94.70
2019-01-30T23:34:42.560Z,94.80
2019-01-30T23:39:15.210Z,94.80
2019-01-30T23:43:51.056Z,94.80
2019-01-30T23:48:53.762Z,95.00
2019-01-30T23:53:29.707Z,95.10
2019-01-30T23:58:08.812Z,95.20
